Time;durP1;ratioP1;P1;durP2;ratioP2;P2;SDS_P1;SDS_P2;PMS_P1;PMS_P2;Temp;Humidity;BMP_temperature;BMP_pressure;BME280_temperature;BME280_humidity;BME280_pressure;Samples;Min_cycle;Max_cycle;Signal;HPM_P1;HPM_P2
2022/04/03 14:05:00;;;;;;;5.47;1.40;;;19.60;75.70;;;;;;5108314;27;20359;-77
2022/04/03 14:07:25;;;;;;;5.90;1.30;;;19.50;74.90;;;;;;5109284;28;20025;-71
2022/04/03 14:09:51;;;;;;;5.93;1.15;;;19.50;75.20;;;;;;5108896;28;20019;-71
2022/04/03 14:12:17;;;;;;;8.60;1.70;;;19.70;73.70;;;;;;5108083;28;20058;-71
2022/04/03 14:14:42;;;;;;;4.45;1.23;;;20.40;72.10;;;;;;5108754;28;20043;-72
2022/04/03 14:17:08;;;;;;;6.00;1.40;;;20.80;71.10;;;;;;5109183;28;20533;-75
2022/04/03 14:19:33;;;;;;;5.75;1.48;;;20.70;71.10;;;;;;5109015;28;20040;-72
2022/04/03 14:21:59;;;;;;;4.68;1.20;;;20.40;71.10;;;;;;5109945;28;20047;-72
2022/04/03 14:24:25;;;;;;;4.00;1.27;;;20.20;72.10;;;;;;5108700;28;20036;-72
2022/04/03 14:26:51;;;;;;;6.63;1.10;;;20.10;71.60;;;;;;5107894;28;20506;-73
2022/04/03 14:29:16;;;;;;;3.90;1.10;;;20.00;71.50;;;;;;5108021;28;20380;-73
2022/04/03 14:31:42;;;;;;;6.97;1.35;;;19.90;71.20;;;;;;5108741;28;20027;-72
2022/04/03 14:34:07;;;;;;;3.50;1.10;;;19.80;71.10;;;;;;5108690;28;20043;-72
2022/04/03 14:36:34;;;;;;;5.28;1.27;;;19.80;71.80;;;;;;5108712;28;20459;-73
2022/04/03 14:39:00;;;;;;;4.05;1.13;;;19.70;71.30;;;;;;5108588;28;20476;-73
2022/04/03 14:41:25;;;;;;;4.47;1.27;;;19.60;71.90;;;;;;5109018;28;20035;-72
2022/04/03 14:43:52;;;;;;;5.63;1.20;;;19.50;71.90;;;;;;5108438;28;20442;-73
2022/04/03 14:46:21;;;;;;;3.20;1.23;;;19.50;72.00;;;;;;5108817;28;20034;-72
2022/04/03 14:48:46;;;;;;;3.03;1.38;;;19.50;72.00;;;;;;5108299;28;20020;-73
2022/04/03 14:51:12;;;;;;;2.95;1.50;;;19.40;72.30;;;;;;5108424;28;20099;-72
2022/04/03 14:53:38;;;;;;;3.90;1.52;;;19.40;71.90;;;;;;5107419;28;20023;-72
2022/04/03 14:56:04;;;;;;;3.97;1.35;;;19.30;71.90;;;;;;5089925;28;20024;-72
2022/04/03 14:58:30;;;;;;;3.28;1.33;;;19.30;72.00;;;;;;5107933;28;20024;-75
2022/04/03 15:00:55;;;;;;;2.88;1.55;;;19.30;72.20;;;;;;5108815;28;20349;-72
2022/04/03 15:03:21;;;;;;;3.88;1.58;;;19.20;72.20;;;;;;5107828;28;20035;-72
2022/04/03 15:05:47;;;;;;;3.00;1.40;;;19.10;71.80;;;;;;5107607;28;20085;-72
2022/04/03 15:08:13;;;;;;;2.80;1.30;;;19.10;72.20;;;;;;5108137;28;20012;-74
2022/04/03 15:10:38;;;;;;;4.72;1.50;;;19.10;72.70;;;;;;5091818;28;20023;-74
2022/04/03 15:13:04;;;;;;;7.50;2.72;;;19.10;73.10;;;;;;5107912;28;20059;-72
2022/04/03 15:15:30;;;;;;;2.70;1.30;;;19.10;74.70;;;;;;5097866;28;20028;-72
2022/04/03 15:17:56;;;;;;;4.20;1.52;;;19.20;72.90;;;;;;5076466;28;20051;-73
2022/04/03 15:20:25;;;;;;;3.58;1.55;;;19.10;73.20;;;;;;5093739;28;20020;-73
2022/04/03 15:22:50;;;;;;;4.93;1.20;;;19.10;72.90;;;;;;5093957;28;20032;-76
2022/04/03 15:25:16;;;;;;;4.00;1.30;;;19.20;72.30;;;;;;5094215;28;20065;-71
2022/04/03 15:27:42;;;;;;;3.78;1.30;;;19.20;73.10;;;;;;5075740;28;20031;-72
2022/04/03 15:30:09;;;;;;;4.50;1.30;;;19.10;72.00;;;;;;5094085;28;20491;-73
2022/04/03 15:32:35;;;;;;;4.50;1.50;;;19.10;72.10;;;;;;5075395;28;20099;-73
2022/04/03 15:35:01;;;;;;;3.03;1.42;;;19.10;72.50;;;;;;5093495;28;20032;-72
2022/04/03 15:37:28;;;;;;;7.07;1.20;;;19.00;72.50;;;;;;5094011;28;20483;-71
2022/04/03 15:39:54;;;;;;;3.83;1.27;;;18.90;72.80;;;;;;5094662;28;20128;-72
2022/04/03 15:42:21;;;;;;;2.90;1.13;;;18.90;72.60;;;;;;5098897;28;20023;-73
2022/04/03 15:44:47;;;;;;;4.32;1.30;;;18.90;72.90;;;;;;5113807;28;20027;-72
2022/04/03 15:47:13;;;;;;;2.78;1.00;;;18.90;73.00;;;;;;5083948;28;20028;-72
2022/04/03 15:49:39;;;;;;;2.90;1.17;;;18.90;72.70;;;;;;5092744;28;20380;-73
2022/04/03 15:52:06;;;;;;;2.28;0.98;;;18.80;72.70;;;;;;5093737;28;20020;-72
2022/04/03 15:54:32;;;;;;;2.35;1.13;;;18.80;72.80;;;;;;5093100;28;20036;-72
2022/04/03 15:56:58;;;;;;;3.28;1.20;;;18.80;72.80;;;;;;5093875;28;20062;-72
2022/04/03 15:59:25;;;;;;;1.73;1.20;;;18.80;73.00;;;;;;5075120;28;20056;-73
2022/04/03 16:01:53;;;;;;;3.30;1.30;;;18.80;73.00;;;;;;5093405;28;20111;-72
2022/04/03 16:04:19;;;;;;;2.38;1.10;;;18.80;73.00;;;;;;5093267;28;20032;-72
2022/04/03 16:06:45;;;;;;;2.42;1.20;;;18.80;73.00;;;;;;5093115;28;20053;-72
2022/04/03 16:09:11;;;;;;;1.90;1.00;;;18.80;73.10;;;;;;5093358;28;20486;-72
2022/04/03 16:11:36;;;;;;;4.20;1.10;;;18.90;73.10;;;;;;5093077;28;20357;-72
2022/04/03 16:14:02;;;;;;;2.97;1.02;;;18.90;73.00;;;;;;5092800;28;20165;-72
2022/04/03 16:16:28;;;;;;;3.67;1.33;;;19.00;72.90;;;;;;5092711;28;20027;-72
2022/04/03 16:18:54;;;;;;;2.10;1.00;;;19.10;72.90;;;;;;5092880;28;20447;-72
2022/04/03 16:21:19;;;;;;;4.57;1.38;;;19.20;72.70;;;;;;5093091;28;20257;-73
2022/04/03 16:23:46;;;;;;;5.60;1.15;;;19.10;79.90;;;;;;5092628;28;20028;-72
2022/04/03 16:26:12;;;;;;;2.75;1.17;;;19.10;84.50;;;;;;5092397;28;20411;-72
2022/04/03 16:28:37;;;;;;;1.58;1.00;;;19.20;78.30;;;;;;5092625;28;20031;-72
2022/04/03 16:31:03;;;;;;;3.72;1.10;;;19.30;74.90;;;;;;5092914;28;20024;-73
2022/04/03 16:33:30;;;;;;;3.13;1.13;;;19.30;77.60;;;;;;5093209;28;20027;-72
2022/04/03 16:35:56;;;;;;;2.72;1.08;;;19.30;75.20;;;;;;5093248;28;20536;-75
2022/04/03 16:38:22;;;;;;;2.95;1.20;;;19.30;75.20;;;;;;5074473;28;20036;-73
2022/04/03 16:40:48;;;;;;;1.90;0.90;;;19.30;76.30;;;;;;5092135;28;20039;-73
2022/04/03 16:43:14;;;;;;;3.97;1.00;;;19.30;75.20;;;;;;5092839;28;20388;-73
2022/04/03 16:45:47;;;;;;;1.85;0.82;;;19.40;75.40;;;;;;5074271;28;20020;-74
2022/04/03 16:48:13;;;;;;;18.55;5.53;;;19.40;75.80;;;;;;5074527;28;20058;-73
2022/04/03 16:50:39;;;;;;;13.35;4.68;;;19.30;79.60;;;;;;5074068;28;20036;-72
2022/04/03 16:53:05;;;;;;;4.63;1.55;;;19.20;88.60;;;;;;5092651;28;20024;-72
2022/04/03 16:55:31;;;;;;;5.28;1.67;;;19.20;81.30;;;;;;5091985;28;20055;-73
2022/04/03 16:57:57;;;;;;;18.95;10.25;;;19.20;78.60;;;;;;5092798;28;20081;-73
2022/04/03 17:00:23;;;;;;;4.35;2.67;;;19.20;81.30;;;;;;5092464;28;20492;-73
2022/04/03 17:02:49;;;;;;;5.28;3.05;;;19.20;81.90;;;;;;5092057;28;20016;-76
2022/04/03 17:05:14;;;;;;;5.03;2.17;;;19.10;82.80;;;;;;5074202;28;20166;-73
2022/04/03 17:07:40;;;;;;;6.57;2.85;;;19.20;82.40;;;;;;5073953;28;20157;-74
2022/04/03 17:10:09;;;;;;;5.40;2.28;;;19.20;83.80;;;;;;5091969;28;20119;-73
2022/04/03 17:12:39;;;;;;;2.67;1.67;;;19.10;83.80;;;;;;5091311;28;20395;-72
2022/04/03 17:15:11;;;;;;;4.28;1.67;;;19.20;80.70;;;;;;5091968;28;20124;-73
2022/04/03 17:17:38;;;;;;;3.08;1.38;;;19.20;76.80;;;;;;5091636;28;20028;-73
2022/04/03 17:20:08;;;;;;;2.13;1.48;;;19.20;76.60;;;;;;5092181;28;20024;-73
2022/04/03 17:22:34;;;;;;;2.92;1.35;;;19.10;77.50;;;;;;5091768;28;20031;-73
2022/04/03 17:25:00;;;;;;;3.55;1.70;;;19.10;77.80;;;;;;5091182;28;20028;-72
2022/04/03 17:27:25;;;;;;;3.70;1.13;;;19.10;77.40;;;;;;5092096;28;20099;-73
2022/04/03 17:29:51;;;;;;;3.42;1.48;;;19.00;77.20;;;;;;5091597;28;20383;-73
2022/04/03 17:32:17;;;;;;;4.00;1.10;;;19.00;76.80;;;;;;5092022;28;20026;-75
2022/04/03 17:34:44;;;;;;;4.20;1.23;;;19.00;76.70;;;;;;5073383;28;20043;-75
2022/04/03 17:37:10;;;;;;;1.80;1.20;;;18.90;76.70;;;;;;5094158;28;20081;-74
2022/04/03 17:39:36;;;;;;;3.13;1.20;;;18.80;76.60;;;;;;5101623;28;20033;-74
2022/04/03 17:42:03;;;;;;;2.28;1.23;;;18.80;76.60;;;;;;5110425;28;20020;-73
2022/04/03 17:44:30;;;;;;;3.45;1.02;;;18.70;76.40;;;;;;5073921;28;20031;-74
2022/04/03 17:46:56;;;;;;;3.83;1.20;;;18.70;76.20;;;;;;5074652;28;20372;-76
2022/04/03 17:49:23;;;;;;;1.95;0.93;;;18.60;76.60;;;;;;5091713;28;20021;-74
2022/04/03 17:51:50;;;;;;;2.33;0.80;;;18.60;76.00;;;;;;5073251;28;20047;-74
2022/04/03 17:54:17;;;;;;;2.28;0.93;;;18.50;75.80;;;;;;5091399;28;20071;-77
2022/04/03 17:56:43;;;;;;;2.90;1.20;;;18.50;75.80;;;;;;5091360;28;20073;-75
2022/04/03 17:59:09;;;;;;;1.83;1.20;;;18.50;75.40;;;;;;5091588;28;20154;-75
2022/04/03 18:01:38;;;;;;;2.38;0.98;;;18.40;75.50;;;;;;5091219;28;20103;-74
2022/04/03 18:04:12;;;;;;;1.88;1.30;;;18.40;75.50;;;;;;5091511;28;20043;-76
2022/04/03 18:06:41;;;;;;;2.20;0.90;;;18.40;75.50;;;;;;5090563;28;20020;-74
2022/04/03 18:09:07;;;;;;;1.85;1.00;;;18.30;75.60;;;;;;5091392;28;20503;-75
2022/04/03 18:11:35;;;;;;;2.17;1.10;;;18.30;75.70;;;;;;5091082;28;20028;-76
2022/04/03 18:14:01;;;;;;;2.53;1.10;;;18.30;75.80;;;;;;5073244;28;20108;-76
2022/04/03 18:16:28;;;;;;;2.08;1.00;;;18.20;75.80;;;;;;5091361;28;20643;-73
2022/04/03 18:18:54;;;;;;;2.60;1.17;;;18.20;75.90;;;;;;5090818;28;20024;-74
2022/04/03 18:21:24;;;;;;;2.85;1.10;;;18.20;76.00;;;;;;5072319;28;20225;-75
2022/04/03 18:23:50;;;;;;;2.25;1.10;;;18.20;76.00;;;;;;5091267;28;20036;-76
2022/04/03 18:26:19;;;;;;;2.15;1.10;;;18.10;77.20;;;;;;5091079;28;20160;-76
2022/04/03 18:28:48;;;;;;;3.63;1.00;;;18.10;76.70;;;;;;5072482;28;20032;-74
2022/04/03 18:31:14;;;;;;;1.92;1.00;;;18.10;76.70;;;;;;5072994;28;20511;-76
2022/04/03 18:33:42;;;;;;;3.88;1.20;;;18.10;76.70;;;;;;5090933;28;20387;-74
2022/04/03 18:36:09;;;;;;;3.15;1.17;;;18.00;76.90;;;;;;5090949;28;20031;-76
2022/04/03 18:38:35;;;;;;;1.23;0.90;;;18.00;77.00;;;;;;5052652;28;20028;-77
2022/04/03 18:41:01;;;;;;;1.58;1.17;;;18.00;77.40;;;;;;5070749;28;20079;-75
2022/04/03 18:43:27;;;;;;;1.88;1.45;;;18.00;77.10;;;;;;5071186;28;20031;-76
2022/04/03 18:45:53;;;;;;;3.10;1.30;;;17.90;78.00;;;;;;5070649;28;20024;-76
2022/04/03 18:48:19;;;;;;;2.00;1.30;;;17.90;77.90;;;;;;5052952;28;20035;-75
2022/04/03 18:50:46;;;;;;;2.22;1.27;;;17.90;77.00;;;;;;5082080;28;20032;-78
2022/04/03 18:53:13;;;;;;;3.42;1.30;;;17.90;77.30;;;;;;5076622;28;20081;-76
2022/04/03 18:55:41;;;;;;;2.53;1.60;;;17.90;78.00;;;;;;5094645;28;20492;-77
2022/04/03 18:58:07;;;;;;;1.90;1.30;;;17.80;77.50;;;;;;5094859;28;20028;-76
2022/04/03 19:00:33;;;;;;;1.67;1.10;;;17.80;77.60;;;;;;5094556;28;20024;-76
2022/04/03 19:02:59;;;;;;;4.10;1.55;;;17.80;78.10;;;;;;5095022;28;20035;-76
2022/04/03 19:05:24;;;;;;;2.13;1.38;;;17.70;78.50;;;;;;5094262;28;20021;-76
2022/04/03 19:07:50;;;;;;;3.53;1.52;;;17.70;79.70;;;;;;5094401;28;20035;-76
2022/04/03 19:10:16;;;;;;;2.22;1.90;;;17.70;77.90;;;;;;5094524;28;20024;-77
2022/04/03 19:12:42;;;;;;;4.03;2.05;;;17.70;78.60;;;;;;5094206;28;20451;-76
2022/04/03 19:15:09;;;;;;;2.65;1.70;;;17.70;78.30;;;;;;5094428;28;20032;-76
2022/04/03 19:17:35;;;;;;;3.60;2.75;;;17.60;78.00;;;;;;5093855;28;20020;-75
2022/04/03 19:20:03;;;;;;;3.67;2.22;;;17.60;78.50;;;;;;5093983;28;20062;-77
2022/04/03 19:22:30;;;;;;;4.03;2.25;;;17.60;78.60;;;;;;5094619;28;20074;-76
2022/04/03 19:24:59;;;;;;;4.35;2.50;;;17.60;77.30;;;;;;5094406;28;20020;-76
2022/04/03 19:27:25;;;;;;;2.13;1.88;;;17.60;76.90;;;;;;5094163;28;20035;-77
2022/04/03 19:29:51;;;;;;;3.35;2.47;;;17.60;77.00;;;;;;5093509;28;20032;-75
2022/04/03 19:32:17;;;;;;;2.03;1.60;;;17.50;77.30;;;;;;5094097;28;20036;-77
2022/04/03 19:34:46;;;;;;;4.25;2.55;;;17.50;77.00;;;;;;5093357;28;20040;-76
2022/04/03 19:37:12;;;;;;;4.22;2.35;;;17.50;76.90;;;;;;5094012;28;20388;-76
2022/04/03 19:39:37;;;;;;;4.20;2.67;;;17.50;76.70;;;;;;5093651;28;20032;-74
2022/04/03 19:42:04;;;;;;;3.33;2.25;;;17.50;77.10;;;;;;5093921;28;20028;-75
2022/04/03 19:44:30;;;;;;;3.30;2.00;;;17.50;76.90;;;;;;5094085;28;20020;-75
2022/04/03 19:46:56;;;;;;;3.13;2.20;;;17.40;77.40;;;;;;5094190;28;20031;-76
2022/04/03 19:49:26;;;;;;;2.90;2.05;;;17.40;77.00;;;;;;5093323;28;20034;-78
2022/04/03 19:51:57;;;;;;;4.57;2.40;;;17.40;77.10;;;;;;5093782;28;20033;-76
2022/04/03 19:54:23;;;;;;;2.45;2.13;;;17.40;77.40;;;;;;5093663;28;20028;-76
2022/04/03 19:56:49;;;;;;;3.92;2.33;;;17.40;77.20;;;;;;5093312;28;20483;-77
2022/04/03 19:59:15;;;;;;;4.28;2.40;;;17.30;77.10;;;;;;5093740;28;20527;-76
2022/04/03 20:01:41;;;;;;;3.35;2.65;;;17.30;77.70;;;;;;5092908;28;20357;-78
2022/04/03 20:04:06;;;;;;;4.55;2.55;;;17.30;77.90;;;;;;5093391;28;20553;-75
2022/04/03 20:06:32;;;;;;;2.67;2.10;;;17.30;78.20;;;;;;5093366;28;20349;-74
2022/04/03 20:08:58;;;;;;;2.90;2.10;;;17.20;78.50;;;;;;5093466;28;20038;-77
2022/04/03 20:11:24;;;;;;;3.30;2.00;;;17.20;78.40;;;;;;5093437;28;20095;-76
2022/04/03 20:13:51;;;;;;;3.10;2.30;;;17.20;78.40;;;;;;5093016;28;20135;-75
2022/04/03 20:16:16;;;;;;;4.20;2.35;;;17.20;78.50;;;;;;5093296;28;20406;-75
2022/04/03 20:18:42;;;;;;;4.22;2.25;;;17.20;80.70;;;;;;5092994;28;20030;-73
2022/04/03 20:21:08;;;;;;;2.42;1.90;;;17.10;79.70;;;;;;5075093;28;20103;-77
2022/04/03 20:23:34;;;;;;;3.15;2.20;;;17.10;78.00;;;;;;5092611;28;20084;-78
2022/04/03 20:26:01;;;;;;;2.83;2.20;;;17.10;76.90;;;;;;5093135;28;20460;-75
2022/04/03 20:28:26;;;;;;;3.67;2.20;;;17.10;77.30;;;;;;5093395;28;20028;-76
2022/04/03 20:30:52;;;;;;;2.80;2.05;;;17.10;77.00;;;;;;5092648;28;20050;-77
2022/04/03 20:33:18;;;;;;;3.85;2.25;;;17.10;76.80;;;;;;5092918;28;20036;-76
2022/04/03 20:35:44;;;;;;;3.45;2.35;;;17.10;76.80;;;;;;5092381;28;20035;-75
2022/04/03 20:38:09;;;;;;;3.28;2.20;;;17.00;76.20;;;;;;5074724;28;20031;-78
2022/04/03 20:40:38;;;;;;;3.90;2.55;;;17.00;76.60;;;;;;5092557;28;20062;-76
2022/04/03 20:43:04;;;;;;;3.70;2.40;;;17.00;78.60;;;;;;5092801;28;20107;-75
2022/04/03 20:45:30;;;;;;;3.40;2.42;;;17.00;77.60;;;;;;5092794;28;20099;-73
2022/04/03 20:47:55;;;;;;;3.75;2.67;;;16.90;78.20;;;;;;5092699;28;20089;-76
2022/04/03 20:50:21;;;;;;;3.88;2.70;;;16.90;78.60;;;;;;5092388;28;20024;-75
2022/04/03 20:52:47;;;;;;;3.47;2.70;;;16.90;77.40;;;;;;5073802;28;20032;-76
2022/04/03 20:55:13;;;;;;;3.45;2.60;;;16.90;77.50;;;;;;5074424;28;20119;-75
2022/04/03 20:57:41;;;;;;;3.45;2.22;;;16.90;76.60;;;;;;5092311;28;20047;-76
2022/04/03 21:00:09;;;;;;;3.70;3.10;;;16.90;76.10;;;;;;5092455;28;20046;-77
2022/04/03 21:02:34;;;;;;;3.63;2.67;;;16.80;77.90;;;;;;5091688;28;20464;-77
2022/04/03 21:05:00;;;;;;;3.22;2.47;;;16.80;76.60;;;;;;5092456;28;20020;-77
2022/04/03 21:07:26;;;;;;;3.60;3.17;;;16.80;76.70;;;;;;5092589;28;20380;-76
2022/04/03 21:09:53;;;;;;;3.15;2.58;;;16.80;77.40;;;;;;5092105;28;20058;-77
2022/04/03 21:12:19;;;;;;;4.40;3.00;;;16.80;76.30;;;;;;5091670;28;20028;-76
2022/04/03 21:14:45;;;;;;;3.80;2.45;;;16.80;76.40;;;;;;5091760;28;20502;-76
2022/04/03 21:17:11;;;;;;;4.55;3.20;;;16.80;75.70;;;;;;5092259;28;20345;-75
2022/04/03 21:19:37;;;;;;;3.63;2.75;;;16.80;75.60;;;;;;5092111;28;20039;-78
2022/04/03 21:22:03;;;;;;;3.80;2.88;;;16.80;75.50;;;;;;5091775;28;20024;-76
2022/04/03 21:24:29;;;;;;;3.25;2.38;;;16.80;76.50;;;;;;5091797;28;20078;-75
2022/04/03 21:26:55;;;;;;;3.70;2.95;;;16.80;75.70;;;;;;5092419;28;20368;-76
2022/04/03 21:29:20;;;;;;;4.05;3.00;;;16.70;77.40;;;;;;5073046;28;20036;-76
2022/04/03 21:31:47;;;;;;;4.20;3.72;;;16.70;76.30;;;;;;5091690;28;20473;-74
2022/04/03 21:34:15;;;;;;;4.72;3.47;;;16.70;76.30;;;;;;5091854;28;20040;-75
2022/04/03 21:36:41;;;;;;;5.53;3.67;;;16.70;76.40;;;;;;5091609;28;20476;-75
2022/04/03 21:39:06;;;;;;;5.45;4.00;;;16.70;76.20;;;;;;5091953;28;20064;-75
2022/04/03 21:41:32;;;;;;;6.60;4.07;;;16.60;76.10;;;;;;5073707;28;20039;-74
2022/04/03 21:43:57;;;;;;;5.03;4.45;;;16.60;76.50;;;;;;5091880;28;20472;-76
2022/04/03 21:46:23;;;;;;;4.43;3.15;;;16.60;76.30;;;;;;5073982;28;20020;-75
2022/04/03 21:48:49;;;;;;;6.47;4.53;;;16.60;76.00;;;;;;5091081;28;20104;-76
2022/04/03 21:51:14;;;;;;;6.03;4.68;;;16.60;76.20;;;;;;5091604;28;20020;-75
2022/04/03 21:53:43;;;;;;;5.07;3.33;;;16.60;76.10;;;;;;5090851;28;20036;-77
2022/04/03 21:56:08;;;;;;;5.00;3.88;;;16.60;76.20;;;;;;5090683;28;20394;-76
2022/04/03 21:58:34;;;;;;;5.75;3.38;;;16.60;76.30;;;;;;5073442;28;20031;-77
2022/04/03 22:00:59;;;;;;;5.55;4.50;;;16.50;76.40;;;;;;5091628;28;20020;-76
2022/04/03 22:03:25;;;;;;;5.05;4.53;;;16.50;76.40;;;;;;5073230;28;20024;-75
2022/04/03 22:05:52;;;;;;;5.65;4.28;;;16.50;75.60;;;;;;5091212;28;20052;-77
2022/04/03 22:08:19;;;;;;;5.70;4.20;;;16.50;75.40;;;;;;5091552;28;20400;-75
2022/04/03 22:10:44;;;;;;;4.15;3.40;;;16.50;75.20;;;;;;5091265;28;20032;-75
2022/04/03 22:13:10;;;;;;;4.57;3.83;;;16.40;75.70;;;;;;5091398;28;20028;-74
2022/04/03 22:15:36;;;;;;;5.35;4.20;;;16.40;75.00;;;;;;5091498;28;20024;-75
2022/04/03 22:18:02;;;;;;;4.88;4.00;;;16.50;74.90;;;;;;5091062;28;20129;-75
2022/04/03 22:20:27;;;;;;;5.18;3.95;;;16.50;74.80;;;;;;5091451;28;20028;-75
2022/04/03 22:22:53;;;;;;;5.90;4.30;;;16.40;74.60;;;;;;5091457;28;20034;-75
2022/04/03 22:25:18;;;;;;;5.72;3.55;;;16.40;75.00;;;;;;5092893;28;20016;-73
2022/04/03 22:27:45;;;;;;;5.32;4.00;;;16.40;75.50;;;;;;5095180;28;20023;-74
2022/04/03 22:30:11;;;;;;;5.50;3.67;;;16.40;75.50;;;;;;5095622;28;20107;-75
2022/04/03 22:32:37;;;;;;;4.97;3.70;;;16.40;75.70;;;;;;5095164;28;20491;-75
2022/04/03 22:35:03;;;;;;;5.13;4.20;;;16.40;75.10;;;;;;5094998;28;20426;-75
2022/04/03 22:37:29;;;;;;;5.00;3.97;;;16.30;75.10;;;;;;5095666;28;20471;-77
2022/04/03 22:39:55;;;;;;;4.40;3.90;;;16.30;75.30;;;;;;5095431;28;20028;-77
2022/04/03 22:42:21;;;;;;;4.78;4.00;;;16.30;74.80;;;;;;5095149;28;20021;-77
2022/04/03 22:44:46;;;;;;;4.57;3.75;;;16.30;75.70;;;;;;5094930;28;20052;-75
2022/04/03 22:47:15;;;;;;;6.15;4.10;;;16.30;75.00;;;;;;5095041;28;20050;-74
2022/04/03 22:49:42;;;;;;;5.43;4.25;;;16.30;75.10;;;;;;5094564;28;20016;-74
2022/04/03 22:52:08;;;;;;;6.53;4.38;;;16.30;74.70;;;;;;5076675;28;20088;-74
2022/04/03 22:54:35;;;;;;;5.47;4.15;;;16.30;74.80;;;;;;5094310;28;20491;-73
2022/04/03 22:57:01;;;;;;;5.80;3.75;;;16.30;74.90;;;;;;5094789;28;20022;-73
2022/04/03 22:59:27;;;;;;;5.05;3.85;;;16.30;74.60;;;;;;5076963;28;20028;-73
2022/04/03 23:01:52;;;;;;;5.18;4.28;;;16.30;74.60;;;;;;5094602;28;20020;-74
2022/04/03 23:04:18;;;;;;;5.93;4.32;;;16.30;74.60;;;;;;5094736;28;20399;-77
2022/04/03 23:06:45;;;;;;;5.57;4.20;;;16.30;74.60;;;;;;5094558;28;20376;-76
2022/04/03 23:09:10;;;;;;;6.55;3.95;;;16.20;75.10;;;;;;5094338;28;20149;-75
2022/04/03 23:11:36;;;;;;;5.38;4.03;;;16.20;74.30;;;;;;5094282;28;20093;-74
2022/04/03 23:14:02;;;;;;;4.38;3.53;;;16.20;74.20;;;;;;5094539;28;20055;-74
2022/04/03 23:16:27;;;;;;;6.03;4.55;;;16.20;74.60;;;;;;5076731;28;20027;-74
2022/04/03 23:18:53;;;;;;;6.05;3.80;;;16.20;73.90;;;;;;5076336;28;20081;-76
2022/04/03 23:21:18;;;;;;;4.82;3.67;;;16.30;73.80;;;;;;5094451;28;20024;-76
2022/04/03 23:23:44;;;;;;;4.07;3.50;;;16.20;73.50;;;;;;5093878;28;20097;-77
2022/04/03 23:26:10;;;;;;;5.57;3.63;;;16.30;73.50;;;;;;5094213;28;20030;-75
2022/04/03 23:28:35;;;;;;;4.32;3.30;;;16.30;73.30;;;;;;5093782;28;20034;-76
2022/04/03 23:31:01;;;;;;;4.63;3.75;;;16.30;73.20;;;;;;5076132;28;20054;-75
2022/04/03 23:33:26;;;;;;;4.72;3.55;;;16.30;73.10;;;;;;5076313;28;20032;-76
2022/04/03 23:35:52;;;;;;;6.07;3.75;;;16.30;73.00;;;;;;5093727;28;20066;-73
2022/04/03 23:38:18;;;;;;;5.07;3.50;;;16.40;73.00;;;;;;5094079;28;20028;-73
2022/04/03 23:40:44;;;;;;;5.07;3.60;;;16.40;73.00;;;;;;5093722;28;20111;-77
2022/04/03 23:43:09;;;;;;;5.50;4.22;;;16.40;73.10;;;;;;5093706;28;20107;-75
2022/04/03 23:45:36;;;;;;;5.03;3.47;;;16.40;73.80;;;;;;5093702;28;20472;-76
2022/04/03 23:48:02;;;;;;;4.95;3.60;;;16.40;72.90;;;;;;5093955;28;20052;-76
2022/04/03 23:50:28;;;;;;;5.13;3.50;;;16.40;72.90;;;;;;5093812;28;20043;-74
2022/04/03 23:52:54;;;;;;;4.38;3.63;;;16.30;72.90;;;;;;5093516;28;20025;-75
2022/04/03 23:55:19;;;;;;;4.70;3.55;;;16.40;73.00;;;;;;5093779;28;20044;-77
2022/04/03 23:57:45;;;;;;;5.22;3.38;;;16.30;72.80;;;;;;5093467;28;20021;-75
